Time;durP1;ratioP1;P1;durP2;ratioP2;P2;SDS_P1;SDS_P2;PMS_P1;PMS_P2;Temp;Humidity;BMP_temperature;BMP_pressure;BME280_temperature;BME280_humidity;BME280_pressure;Samples;Min_cycle;Max_cycle;Signal;HPM_P1;HPM_P2
2022/01/09 00:00:26;;;;;;;0.20;0.20;;;4.30;99.90;;;4.18;100.00;98518.91;4897096;29;20208;-78
2022/01/09 00:02:54;;;;;;;0.20;0.20;;;4.40;99.90;;;4.20;100.00;98508.44;4914864;29;20215;-78
2022/01/09 00:05:23;;;;;;;0.30;0.30;;;4.30;99.90;;;4.25;100.00;98496.25;4894539;29;20212;-79
2022/01/09 00:07:51;;;;;;;0.30;0.30;;;4.30;99.90;;;4.23;100.00;98490.16;4883711;29;20235;-79
2022/01/09 00:10:20;;;;;;;0.20;0.20;;;4.50;99.90;;;4.22;100.00;98490.13;4903834;29;20239;-79
2022/01/09 00:12:49;;;;;;;0.30;0.30;;;4.30;99.90;;;4.21;100.00;98481.41;4890469;29;20211;-79
2022/01/09 00:15:17;;;;;;;0.30;0.30;;;4.30;99.90;;;4.28;100.00;98480.56;4876184;29;20219;-79
2022/01/09 00:17:45;;;;;;;0.20;0.20;;;4.40;99.90;;;4.31;100.00;98477.09;4906368;29;20238;-79
2022/01/09 00:20:13;;;;;;;0.10;0.10;;;4.40;99.90;;;4.25;100.00;98472.72;4897966;29;20234;-79
2022/01/09 00:22:48;;;;;;;0.30;0.30;;;4.40;99.90;;;4.30;100.00;98468.38;4884560;29;20678;-79
2022/01/09 00:25:19;;;;;;;0.20;0.20;;;4.40;99.90;;;4.33;100.00;98472.72;4893014;29;20214;-79
2022/01/09 00:27:49;;;;;;;0.65;0.50;;;4.50;99.90;;;4.31;100.00;98471.84;4898582;29;20238;-78
2022/01/09 00:30:20;;;;;;;0.20;0.20;;;4.40;99.90;;;4.39;100.00;98472.75;4909423;29;20211;-78
2022/01/09 00:32:50;;;;;;;0.20;0.20;;;4.50;99.90;;;4.39;100.00;98465.75;4926188;29;20212;-79
2022/01/09 00:35:18;;;;;;;0.20;0.20;;;4.50;99.90;;;4.38;100.00;98457.91;4881071;29;20214;-79
2022/01/09 00:37:49;;;;;;;0.20;0.20;;;4.50;99.90;;;4.39;100.00;98457.03;4931823;23;20231;-79
2022/01/09 00:41:22;;;;;;;0.35;0.35;;;4.00;99.90;;;4.35;100.00;98455.28;4937614;29;20666;-79
2022/01/09 00:44:39;;;;;;;0.50;0.50;;;4.50;99.90;;;4.40;100.00;98450.94;4942493;28;20213;-78
2022/01/09 00:48:37;;;;;;;0.30;0.30;;;4.40;99.90;;;4.41;100.00;98447.44;4983738;23;20712;-78
2022/01/09 00:51:18;;;;;;;0.30;0.30;;;;;;;4.46;100.00;98443.97;4911231;29;20213;-79
2022/01/09 00:54:01;;;;;;;0.30;0.30;;;4.60;99.90;;;4.46;100.00;98438.72;4935755;29;20229;-79
2022/01/09 00:56:35;;;;;;;0.30;0.30;;;4.60;99.90;;;4.45;100.00;98434.38;4952608;28;20700;-79
2022/01/09 01:03:33;;;;;;;0.20;0.20;;;4.60;99.90;;;4.51;100.00;98417.81;4938072;29;20206;-79
2022/01/09 01:06:02;;;;;;;8.43;3.25;;;;;;;4.56;100.00;98417.81;4920783;23;20226;-83
2022/01/09 01:08:30;;;;;;;0.20;0.20;;;4.70;99.90;;;4.55;100.00;98409.09;4938523;28;20240;-84
2022/01/09 01:10:59;;;;;;;0.30;0.30;;;;;;;4.58;100.00;98414.31;4970893;28;20208;-83
2022/01/09 01:13:26;;;;;;;0.30;0.30;;;4.70;99.90;;;4.61;100.00;98410.81;4955071;28;20217;-83
2022/01/09 01:15:55;;;;;;;0.30;0.30;;;;;;;4.56;100.00;98405.59;4952244;28;20598;-83
2022/01/09 01:18:24;;;;;;;0.30;0.30;;;;;;;4.53;100.00;98399.47;4933816;29;20230;-83
2022/01/09 01:20:52;;;;;;;0.30;0.30;;;;;;;4.57;100.00;98411.69;4919756;29;20220;-83
2022/01/09 01:23:20;;;;;;;0.30;0.30;;;;;;;4.53;100.00;98405.59;4920478;29;20866;-84
2022/01/09 01:25:51;;;;;;;0.30;0.30;;;4.70;99.90;;;4.56;100.00;98405.59;4902674;28;20217;-84
2022/01/09 01:28:20;;;;;;;0.30;0.30;;;;;;;4.54;100.00;98399.47;4914779;29;20214;-84
2022/01/09 01:30:48;;;;;;;0.40;0.40;;;;;;;4.57;100.00;98401.22;4912482;29;20217;-83
2022/01/09 01:33:16;;;;;;;0.30;0.30;;;;;;;4.54;100.00;98407.34;4902764;29;20217;-84
2022/01/09 01:35:44;;;;;;;0.30;0.30;;;;;;;4.54;100.00;98407.34;4924152;28;20213;-84
2022/01/09 01:38:12;;;;;;;0.30;0.30;;;;;;;4.58;100.00;98402.97;4907650;29;20226;-83
2022/01/09 01:40:40;;;;;;;0.35;0.35;;;4.70;99.90;;;4.60;100.00;98417.81;4908258;29;20225;-83
2022/01/09 01:43:09;;;;;;;0.30;0.30;;;;;;;4.59;100.00;98407.34;4922849;29;20225;-84
2022/01/09 01:45:37;;;;;;;0.30;0.30;;;;;;;4.63;100.00;98415.19;4939697;29;20216;-84
2022/01/09 01:48:06;;;;;;;0.20;0.20;;;4.80;99.90;;;4.60;100.00;98409.09;4905800;28;20228;-84
2022/01/09 01:50:37;;;;;;;0.30;0.30;;;;;;;4.61;100.00;98410.81;4924135;29;20221;-84
2022/01/09 01:53:14;;;;;;;0.30;0.30;;;4.80;99.90;;;4.59;100.00;98407.34;4933393;29;20209;-84
2022/01/09 01:55:44;;;;;;;0.30;0.30;;;;;;;4.61;100.00;98414.31;4923762;29;20214;-84
2022/01/09 01:58:11;;;;;;;0.20;0.20;;;4.80;99.90;;;4.65;100.00;98415.19;4905894;29;20230;-84
2022/01/09 02:00:41;;;;;;;0.20;0.20;;;4.80;99.90;;;4.69;100.00;98424.78;4921807;29;20206;-84
2022/01/09 02:03:10;;;;;;;0.30;0.30;;;4.80;99.90;;;4.71;100.00;98418.69;4939299;29;20213;-83
2022/01/09 02:05:42;;;;;;;0.30;0.30;;;4.80;99.90;;;4.71;100.00;98413.44;4908081;29;20206;-84
2022/01/09 02:08:12;;;;;;;0.30;0.30;;;4.90;99.90;;;4.71;100.00;98409.97;4937251;28;20241;-84
2022/01/09 02:10:44;;;;;;;0.20;0.20;;;4.80;99.90;;;4.71;100.00;98407.34;4937451;29;20207;-84
2022/01/09 02:13:12;;;;;;;0.30;0.30;;;;;;;4.76;100.00;98406.47;4914097;29;20206;-84
2022/01/09 02:15:47;;;;;;;0.30;0.30;;;4.90;99.90;;;4.77;100.00;98407.34;4919162;29;20209;-84
2022/01/09 02:18:21;;;;;;;0.30;0.30;;;4.90;99.90;;;4.78;100.00;98403.84;4919388;28;20210;-84
2022/01/09 02:20:51;;;;;;;0.20;0.20;;;4.90;99.90;;;4.75;100.00;98401.22;4907056;29;20197;-84
2022/01/09 02:23:20;;;;;;;0.20;0.20;;;4.90;99.90;;;4.75;100.00;98401.22;4918447;29;20210;-84
2022/01/09 02:25:48;;;;;;;0.32;0.32;;;4.90;99.90;;;4.74;100.00;98399.47;4922655;28;20206;-84
2022/01/09 02:28:17;;;;;;;0.30;0.30;;;4.80;99.90;;;4.69;100.00;98391.63;4922177;29;20214;-84
2022/01/09 02:30:46;;;;;;;0.30;0.30;;;4.90;99.90;;;4.74;100.00;98389.88;4935910;29;20194;-84
2022/01/09 02:33:16;;;;;;;0.30;0.30;;;4.90;99.90;;;4.74;100.00;98396.88;4920151;29;20573;-84
2022/01/09 02:35:49;;;;;;;0.30;0.30;;;4.90;99.90;;;4.81;100.00;98404.72;4919461;29;20207;-84
2022/01/09 02:38:19;;;;;;;0.20;0.20;;;4.90;99.90;;;4.81;100.00;98399.47;4934004;29;20206;-84
2022/01/09 02:40:53;;;;;;;0.10;0.10;;;4.90;99.90;;;4.86;100.00;98398.59;4935350;28;20205;-83
2022/01/09 02:43:22;;;;;;;0.20;0.20;;;4.90;99.90;;;4.82;100.00;98403.84;4909455;29;20210;-83
2022/01/09 02:46:11;;;;;;;0.40;0.40;;;5.00;99.90;;;4.92;100.00;98416.94;4936075;29;20209;-83
2022/01/09 02:48:39;;;;;;;0.32;0.32;;;5.00;99.90;;;4.87;100.00;98416.94;4930719;29;20207;-83
2022/01/09 02:51:14;;;;;;;0.40;0.40;;;5.00;99.90;;;4.89;100.00;98427.41;4904463;29;20213;-83
2022/01/09 02:53:46;;;;;;;0.32;0.32;;;5.00;99.90;;;5.05;100.00;98437.00;4963716;28;20217;-83
2022/01/09 02:56:15;;;;;;;0.30;0.30;;;5.10;99.90;;;5.00;100.00;98438.75;4920624;29;20225;-83
2022/01/09 02:58:44;;;;;;;0.30;0.30;;;5.10;99.90;;;5.11;100.00;98437.00;4907261;29;20222;-83
2022/01/09 03:01:12;;;;;;;0.10;0.10;;;5.10;99.90;;;5.14;100.00;98437.00;4923339;29;20209;-83
2022/01/09 03:03:41;;;;;;;0.17;0.17;;;5.20;99.90;;;5.12;100.00;98425.63;4920454;29;20209;-83
2022/01/09 03:06:09;;;;;;;0.40;0.40;;;5.20;99.90;;;5.30;100.00;98435.25;4920125;29;20238;-84
2022/01/09 03:08:38;;;;;;;0.10;0.10;;;5.20;99.90;;;5.28;100.00;98419.53;4919973;29;20202;-83
2022/01/09 03:11:06;;;;;;;0.10;0.10;;;5.30;99.90;;;5.25;100.00;98413.41;4921178;29;20718;-83
2022/01/09 03:13:34;;;;;;;0.10;0.10;;;5.30;99.90;;;5.22;100.00;98416.03;4951322;28;20617;-83
2022/01/09 03:16:03;;;;;;;0.30;0.30;;;5.30;99.90;;;5.37;100.00;98436.97;4922844;28;20203;-83
2022/01/09 03:18:30;;;;;;;0.30;0.30;;;5.30;99.90;;;5.44;100.00;98431.72;4919852;29;20210;-82
2022/01/09 03:20:59;;;;;;;0.30;0.30;;;;;;;5.41;100.00;98426.47;4919727;29;20215;-83
2022/01/09 03:23:27;;;;;;;0.30;0.30;;;;;;;5.44;100.00;98436.09;4919190;29;20214;-83
2022/01/09 03:25:55;;;;;;;0.35;0.35;;;;;;;5.40;100.00;98424.75;4933604;28;20221;-83
2022/01/09 03:28:23;;;;;;;0.30;0.30;;;5.50;99.90;;;5.39;100.00;98433.47;4922234;29;20217;-84
2022/01/09 03:30:51;;;;;;;0.30;0.30;;;5.50;99.90;;;5.58;100.00;98436.06;4920068;29;20673;-85
2022/01/09 03:33:19;;;;;;;0.20;0.20;;;;;;;5.56;100.00;98445.66;4907004;29;20228;-83
2022/01/09 03:35:47;;;;;;;0.40;0.40;;;5.50;99.90;;;5.55;100.00;98430.81;4921570;28;20206;-84
2022/01/09 03:38:15;;;;;;;0.30;0.30;;;5.60;99.90;;;5.43;100.00;98418.63;4917909;29;20210;-83
2022/01/09 03:40:43;;;;;;;0.25;0.25;;;5.60;99.90;;;5.40;100.00;98423.88;4918261;29;20581;-84
2022/01/09 03:43:11;;;;;;;0.20;0.20;;;5.50;99.90;;;5.55;100.00;98433.44;4907144;29;20618;-83
2022/01/09 03:45:39;;;;;;;0.30;0.30;;;;;;;5.49;100.00;98423.84;4935449;29;20229;-83
2022/01/09 03:48:07;;;;;;;0.20;0.20;;;5.60;99.90;;;5.49;100.00;98425.59;4907076;29;20589;-84
2022/01/09 03:50:36;;;;;;;0.30;0.30;;;;;;;5.42;100.00;98415.13;4905964;28;20204;-84
2022/01/09 03:53:04;;;;;;;0.40;0.40;;;5.60;99.90;;;5.37;100.00;98416.88;4898252;28;20214;-83
2022/01/09 03:55:33;;;;;;;0.30;0.30;;;;;;;5.45;100.00;98416.88;4929189;29;20218;-84
2022/01/09 03:58:01;;;;;;;0.20;0.20;;;;;;;5.55;100.00;98415.09;4929927;29;20227;-83
2022/01/09 04:00:29;;;;;;;0.40;0.40;;;;;;;5.41;100.00;98409.88;4945035;28;20234;-84
2022/01/09 04:02:58;;;;;;;0.40;0.40;;;;;;;5.43;100.00;98401.13;4900144;28;20211;-83
2022/01/09 04:05:26;;;;;;;0.40;0.40;;;;;;;5.44;100.00;98402.88;4917922;29;20213;-83
2022/01/09 04:07:54;;;;;;;0.30;0.30;;;5.50;99.90;;;5.41;100.00;98402.91;4900437;29;20234;-84
2022/01/09 04:10:43;;;;;;;0.40;0.40;;;5.60;99.90;;;5.31;100.00;98393.31;4915064;29;20680;-83
2022/01/09 04:13:12;;;;;;;0.40;0.40;;;5.50;99.90;;;5.34;100.00;98408.16;4916560;29;20576;-83
2022/01/09 04:15:46;;;;;;;0.40;0.40;;;;;;;5.23;100.00;98426.53;4927209;28;20206;-83
2022/01/09 04:18:20;;;;;;;0.40;0.40;;;5.50;99.90;;;5.11;100.00;98430.00;4919204;28;20214;-83
2022/01/09 04:20:50;;;;;;;0.35;0.35;;;5.30;99.90;;;5.02;100.00;98434.38;4914007;29;20228;-83
2022/01/09 04:23:20;;;;;;;0.40;0.40;;;5.30;99.90;;;4.96;100.00;98450.09;4915922;29;20211;-83
2022/01/09 04:25:48;;;;;;;0.32;0.32;;;5.20;99.90;;;4.95;100.00;98454.47;4899601;28;20237;-82
2022/01/09 04:28:17;;;;;;;0.40;0.40;;;5.20;99.90;;;4.95;100.00;98477.16;4920600;29;20217;-83
2022/01/09 04:30:46;;;;;;;0.40;0.40;;;;;;;4.81;100.00;98469.31;4913800;29;20226;-82
2022/01/09 04:33:14;;;;;;;0.32;0.32;;;5.10;99.90;;;4.79;100.00;98486.75;4901497;28;20222;-83
2022/01/09 04:35:43;;;;;;;0.40;0.40;;;;;;;4.72;100.00;98500.72;4916047;29;20217;-83
2022/01/09 04:38:11;;;;;;;0.30;0.30;;;5.00;99.90;;;4.63;100.00;98513.78;4902566;29;20233;-83
2022/01/09 04:40:40;;;;;;;0.20;0.20;;;;;;;4.63;100.00;98525.13;4913992;29;20237;-83
2022/01/09 04:43:10;;;;;;;0.35;0.35;;;4.90;99.90;;;4.58;100.00;98532.09;4945642;28;20210;-84
2022/01/09 04:45:38;;;;;;;0.20;0.20;;;4.90;99.90;;;4.57;100.00;98546.06;4932205;29;20206;-83
2022/01/09 04:48:09;;;;;;;0.22;0.22;;;;;;;4.56;100.00;98557.41;4915311;29;20235;-83
2022/01/09 04:50:39;;;;;;;0.20;0.20;;;;;;;4.59;100.00;98565.25;4916835;29;20217;-83
2022/01/09 04:53:08;;;;;;;0.30;0.30;;;4.80;99.90;;;4.50;100.00;98558.25;4915154;28;20206;-83
2022/01/09 04:55:45;;;;;;;0.30;0.30;;;4.70;99.90;;;4.48;100.00;98551.28;4898187;29;20217;-83
2022/01/09 04:58:14;;;;;;;0.30;0.30;;;4.70;99.90;;;4.48;100.00;98577.44;4915346;29;20221;-83
2022/01/09 05:00:42;;;;;;;0.20;0.20;;;4.70;99.90;;;4.43;100.00;98568.72;4899471;29;20707;-83
2022/01/09 05:03:13;;;;;;;0.20;0.20;;;4.70;99.90;;;4.39;100.00;98590.50;4912411;28;20214;-83
2022/01/09 05:05:42;;;;;;;0.20;0.20;;;4.70;99.90;;;4.38;100.00;98600.09;4913420;29;20217;-83
2022/01/09 05:08:10;;;;;;;0.30;0.30;;;4.60;99.90;;;4.38;100.00;98597.47;4933127;29;20237;-84
2022/01/09 05:10:38;;;;;;;0.20;0.20;;;4.60;99.90;;;4.37;100.00;98607.94;4911333;29;20214;-83
2022/01/09 05:13:06;;;;;;;0.30;0.30;;;4.60;99.90;;;4.34;100.00;98613.16;4900286;29;20218;-84
2022/01/09 05:15:34;;;;;;;0.10;0.10;;;4.60;99.90;;;4.33;100.00;98616.63;4913645;29;20210;-83
2022/01/09 05:18:04;;;;;;;0.30;0.30;;;4.60;99.90;;;4.40;100.00;98641.97;4919285;29;20221;-83
2022/01/09 05:20:32;;;;;;;0.22;0.22;;;;;;;4.45;100.00;98632.41;4916503;29;20233;-83
2022/01/09 05:23:00;;;;;;;0.20;0.20;;;4.60;99.90;;;4.49;100.00;98644.63;4901632;29;20236;-83
2022/01/09 05:25:29;;;;;;;0.20;0.20;;;4.60;99.90;;;4.44;100.00;98642.00;4936291;28;20210;-83
2022/01/09 05:27:57;;;;;;;0.28;0.28;;;4.60;99.90;;;4.39;100.00;98653.31;4933849;29;20249;-83
2022/01/09 05:30:25;;;;;;;0.30;0.30;;;4.60;99.90;;;4.41;100.00;98654.19;4934399;29;20198;-83
2022/01/09 05:32:53;;;;;;;0.20;0.20;;;4.60;99.90;;;4.44;100.00;98656.81;4920479;29;20202;-83
2022/01/09 05:35:22;;;;;;;0.20;0.20;;;4.60;99.90;;;4.40;100.00;98669.00;4917251;28;20206;-83
2022/01/09 05:37:52;;;;;;;0.30;0.30;;;4.60;99.90;;;4.43;100.00;98684.72;4918936;29;20226;-83
2022/01/09 05:40:20;;;;;;;0.30;0.30;;;;;;;4.53;100.00;98687.41;4932282;29;20241;-83
2022/01/09 05:42:48;;;;;;;0.20;0.20;;;4.60;99.90;;;4.47;100.00;98689.09;4918047;29;20209;-83
2022/01/09 05:45:17;;;;;;;0.20;0.20;;;4.60;99.90;;;4.55;100.00;98717.06;4913280;29;20445;-83
2022/01/09 05:47:46;;;;;;;0.20;0.20;;;4.70;99.90;;;4.50;100.00;98710.06;4941809;28;20229;-83
2022/01/09 05:50:15;;;;;;;0.20;0.20;;;4.70;99.90;;;4.54;100.00;98715.31;4927730;29;20210;-82
2022/01/09 05:52:42;;;;;;;0.20;0.20;;;4.70;99.90;;;4.51;100.00;98713.56;4902278;29;20202;-82
2022/01/09 05:55:11;;;;;;;0.20;0.20;;;4.70;99.90;;;4.49;100.00;98712.69;4934503;29;20210;-83
2022/01/09 05:57:40;;;;;;;0.20;0.20;;;4.70;99.90;;;4.59;100.00;98732.81;4916067;28;20227;-83
2022/01/09 06:00:08;;;;;;;0.63;0.63;;;5.00;99.90;;;4.56;100.00;98724.94;4899482;29;20211;-83
2022/01/09 06:02:46;;;;;;;0.30;0.30;;;4.70;99.90;;;4.54;100.00;98728.41;4935915;29;20217;-82
2022/01/09 06:05:15;;;;;;;0.20;0.20;;;4.70;99.90;;;4.58;100.00;98736.28;4935822;29;20213;-83
2022/01/09 06:07:43;;;;;;;0.25;0.25;;;4.70;99.90;;;4.66;100.00;98733.72;4915078;28;21502;-83
2022/01/09 06:10:12;;;;;;;0.30;0.30;;;4.70;99.90;;;4.62;100.00;98732.81;4906211;29;20210;-83
2022/01/09 06:12:40;;;;;;;0.28;0.28;;;4.70;99.90;;;4.66;100.00;98734.59;4902547;29;20202;-83
2022/01/09 06:15:09;;;;;;;0.20;0.20;;;4.70;99.90;;;4.68;100.00;98742.44;4902964;29;20210;-83
2022/01/09 06:17:41;;;;;;;0.22;0.22;;;4.80;99.90;;;4.77;100.00;98771.28;4915846;28;20234;-83
2022/01/09 06:20:12;;;;;;;0.40;0.40;;;4.80;99.90;;;4.83;100.00;98758.25;4900155;29;20215;-83
2022/01/09 06:22:42;;;;;;;0.20;0.20;;;4.90;99.90;;;4.85;100.00;98750.38;4916028;29;20217;-83
2022/01/09 06:25:11;;;;;;;0.20;0.20;;;4.90;99.90;;;4.76;100.00;98756.44;4917626;29;20565;-83
2022/01/09 06:27:39;;;;;;;0.20;0.20;;;;;;;4.77;100.00;98769.56;4915324;28;20241;-83
2022/01/09 06:30:09;;;;;;;0.25;0.25;;;4.90;99.90;;;4.97;100.00;98780.13;4916491;29;20214;-82
2022/01/09 06:32:41;;;;;;;0.20;0.20;;;5.00;99.90;;;4.81;100.00;98754.72;4902261;29;20258;-83
2022/01/09 06:35:10;;;;;;;0.20;0.20;;;5.00;99.90;;;4.71;100.00;98750.31;4920655;29;20206;-83
2022/01/09 06:37:38;;;;;;;0.20;0.20;;;4.90;99.90;;;4.75;100.00;98767.78;4916762;29;20241;-84
2022/01/09 06:40:08;;;;;;;0.20;0.20;;;4.90;99.90;;;4.78;100.00;98768.69;4915989;29;20218;-83
2022/01/09 06:42:38;;;;;;;0.20;0.20;;;4.90;99.90;;;4.65;100.00;98766.88;4902890;29;20226;-82
2022/01/09 06:45:06;;;;;;;0.20;0.20;;;4.90;99.90;;;4.63;100.00;98778.19;4932921;29;20664;-82
2022/01/09 06:47:34;;;;;;;0.20;0.20;;;4.80;99.90;;;4.81;100.00;98804.50;4934978;29;20235;-84
2022/01/09 06:50:03;;;;;;;0.20;0.20;;;4.80;99.90;;;4.85;100.00;98802.75;4918961;29;20687;-84
2022/01/09 06:52:31;;;;;;;0.25;0.25;;;4.90;99.90;;;4.81;100.00;98813.22;4904587;29;20299;-83
2022/01/09 06:54:59;;;;;;;0.20;0.20;;;4.90;99.90;;;4.75;100.00;98793.97;4939103;29;20214;-83
2022/01/09 06:57:27;;;;;;;0.20;0.20;;;4.90;99.90;;;4.63;100.00;98800.00;4922192;29;20238;-83
2022/01/09 06:59:55;;;;;;;0.20;0.20;;;4.90;99.90;;;4.65;100.00;98824.47;4919046;29;20221;-83
2022/01/09 07:02:23;;;;;;;0.20;0.20;;;4.80;99.90;;;4.58;100.00;98825.28;4920049;29;20236;-84
2022/01/09 07:04:51;;;;;;;0.20;0.20;;;4.80;99.90;;;4.63;100.00;98836.66;4922684;29;20209;-84
2022/01/09 07:07:19;;;;;;;0.22;0.22;;;4.80;99.90;;;4.67;100.00;98838.44;4930439;23;20244;-79
2022/01/09 07:09:47;;;;;;;0.30;0.30;;;4.80;99.90;;;4.75;100.00;98839.38;4908345;29;20206;-79
2022/01/09 07:12:15;;;;;;;0.30;0.30;;;;;;;4.77;100.00;98860.34;4918943;28;20210;-80
2022/01/09 07:14:43;;;;;;;0.30;0.30;;;4.80;99.90;;;4.74;100.00;98844.59;4936661;29;20213;-81
2022/01/09 07:17:12;;;;;;;0.20;0.20;;;4.80;99.90;;;4.72;100.00;98841.97;4934227;29;20238;-80
2022/01/09 07:19:40;;;;;;;0.30;0.30;;;4.80;99.90;;;4.75;100.00;98855.09;4908261;29;20796;-80
2022/01/09 07:22:08;;;;;;;0.20;0.20;;;4.90;99.90;;;4.72;100.00;98857.69;4937830;29;20234;-80
2022/01/09 07:24:36;;;;;;;0.30;0.30;;;4.90;99.90;;;4.65;100.00;98862.84;4906567;29;20202;-80
2022/01/09 07:27:05;;;;;;;0.20;0.20;;;4.90;99.90;;;4.71;100.00;98882.09;4924148;29;20231;-80
2022/01/09 07:29:34;;;;;;;0.30;0.30;;;4.80;99.90;;;4.73;100.00;98879.50;4919328;29;20203;-80
2022/01/09 07:32:02;;;;;;;0.30;0.30;;;4.80;99.90;;;4.68;100.00;98892.56;4904373;29;20572;-81
2022/01/09 07:34:30;;;;;;;0.22;0.22;;;2.00;99.90;;;4.68;100.00;98892.56;4891159;29;20214;-80
2022/01/09 07:36:58;;;;;;;0.20;0.20;;;4.80;99.90;;;4.64;100.00;98889.91;4922371;29;20242;-80
2022/01/09 07:39:28;;;;;;;0.20;0.20;;;;;;;4.66;100.00;98891.66;4954037;28;20218;-80
2022/01/09 07:41:57;;;;;;;0.20;0.20;;;4.80;99.90;;;4.54;100.00;98893.31;4923220;29;20226;-80
2022/01/09 07:44:28;;;;;;;0.73;0.73;;;4.70;99.90;;;4.54;100.00;98903.78;4937136;29;20211;-79
2022/01/09 07:46:56;;;;;;;0.30;0.30;;;4.70;99.90;;;4.54;100.00;98904.66;4890843;29;20226;-80
2022/01/09 07:49:24;;;;;;;0.30;0.30;;;4.70;99.90;;;4.53;100.00;98905.53;4936516;29;20214;-81
2022/01/09 07:51:52;;;;;;;0.30;0.30;;;;;;;4.47;100.00;98908.09;4906819;29;20210;-80
2022/01/09 07:54:20;;;;;;;0.30;0.30;;;4.70;99.90;;;4.58;100.00;98923.91;4920563;29;20207;-81
2022/01/09 07:56:49;;;;;;;0.20;0.20;;;;;;;4.52;100.00;98923.84;4896103;29;20238;-81
2022/01/09 07:59:17;;;;;;;0.30;0.30;;;4.70;99.90;;;4.51;100.00;98922.97;4905747;29;20226;-81
2022/01/09 08:01:50;;;;;;;0.20;0.20;;;4.70;99.90;;;4.48;100.00;98926.44;4923603;29;20219;-80
2022/01/09 08:04:22;;;;;;;0.25;0.25;;;4.60;99.90;;;4.48;100.00;98936.91;4906926;29;20218;-80
2022/01/09 08:06:50;;;;;;;0.10;0.10;;;;;;;4.55;100.00;98942.19;4922864;29;20234;-81
2022/01/09 08:09:18;;;;;;;0.30;0.30;;;4.70;99.90;;;4.49;100.00;98933.41;4906181;29;20206;-80
2022/01/09 08:11:46;;;;;;;0.30;0.30;;;4.70;99.90;;;4.57;100.00;98938.72;4911751;29;20222;-79
2022/01/09 08:14:14;;;;;;;0.30;0.30;;;4.70;99.90;;;4.54;100.00;98930.84;4889928;29;20213;-79
2022/01/09 08:16:41;;;;;;;0.30;0.30;;;4.70;99.90;;;4.47;100.00;98934.25;4903438;29;20226;-79
2022/01/09 08:19:09;;;;;;;0.30;0.30;;;4.60;99.90;;;4.45;100.00;98941.22;4904572;29;20226;-80
2022/01/09 08:21:37;;;;;;;0.30;0.30;;;4.60;99.90;;;4.42;100.00;98941.19;4915480;29;20307;-80
2022/01/09 08:24:06;;;;;;;0.30;0.30;;;4.60;99.90;;;4.49;100.00;98933.41;4922618;29;20215;-81
2022/01/09 08:26:34;;;;;;;0.30;0.30;;;4.60;99.90;;;4.54;100.00;98924.72;4940764;29;20252;-82
2022/01/09 08:29:02;;;;;;;0.13;0.13;;;4.60;99.90;;;4.45;100.00;98909.81;4893642;29;20215;-81
2022/01/09 08:31:32;;;;;;;0.30;0.30;;;4.60;99.90;;;4.40;100.00;98908.91;4905602;29;20206;-81
2022/01/09 08:34:03;;;;;;;0.20;0.20;;;4.60;99.90;;;4.45;100.00;98941.22;4934100;28;20211;-82
2022/01/09 08:36:34;;;;;;;0.40;0.40;;;4.60;99.90;;;4.40;100.00;98942.91;4933924;29;20585;-81
2022/01/09 08:39:06;;;;;;;0.22;0.22;;;4.50;99.90;;;4.34;100.00;98935.00;4913413;29;20218;-80
2022/01/09 08:41:35;;;;;;;0.30;0.30;;;4.70;99.90;;;4.39;100.00;98951.63;4904746;29;20229;-86
2022/01/09 08:44:04;;;;;;;0.30;0.30;;;4.50;99.90;;;4.46;100.00;98938.63;4919728;29;20199;-85
2022/01/09 08:46:38;;;;;;;0.20;0.20;;;4.50;99.90;;;4.44;100.00;98937.72;4935338;29;20230;-80
2022/01/09 08:49:08;;;;;;;0.30;0.30;;;4.60;99.90;;;4.42;100.00;98933.34;4905529;29;20209;-83
2022/01/09 08:51:40;;;;;;;0.50;0.50;;;4.60;99.90;;;4.48;100.00;98922.94;4902837;29;20214;-82
2022/01/09 08:54:09;;;;;;;0.30;0.30;;;;;;;4.49;100.00;98924.69;4918824;29;20214;-82
2022/01/09 08:56:41;;;;;;;0.40;0.40;;;4.60;99.90;;;4.50;100.00;98923.81;4890908;29;20230;-81
2022/01/09 08:59:10;;;;;;;0.40;0.40;;;;;;;4.50;100.00;98915.97;4915880;29;20231;-81
2022/01/09 09:01:47;;;;;;;0.30;0.30;;;4.70;99.90;;;4.57;100.00;98922.13;4935769;29;20223;-83
2022/01/09 09:04:18;;;;;;;0.30;0.30;;;4.60;99.90;;;4.54;100.00;98925.59;4934280;29;20209;-81
2022/01/09 09:06:47;;;;;;;0.30;0.30;;;;;;;4.58;100.00;98931.75;4865714;29;20237;-82
2022/01/09 09:09:16;;;;;;;0.75;0.63;;;;;;;4.59;100.00;98938.72;4904976;29;20211;-81
2022/01/09 09:11:48;;;;;;;0.20;0.20;;;;;;;4.67;100.00;98934.44;4934592;29;20214;-83
2022/01/09 09:14:23;;;;;;;0.20;0.20;;;4.80;99.90;;;4.76;100.00;98943.25;4935429;29;20212;-84
2022/01/09 09:16:55;;;;;;;0.25;0.25;;;;;;;4.79;100.00;98919.72;4903166;29;20234;-79
2022/01/09 09:19:24;;;;;;;0.30;0.30;;;;;;;4.85;100.00;98928.47;4923240;29;20221;-81
2022/01/09 09:21:53;;;;;;;0.30;0.30;;;5.00;99.90;;;4.95;100.00;98917.19;4925283;29;20219;-79
2022/01/09 09:24:21;;;;;;;0.30;0.30;;;5.00;99.90;;;5.01;100.00;98920.75;4916128;29;20222;-86
2022/01/09 09:26:50;;;;;;;0.30;0.30;;;;;;;5.09;100.00;98942.63;4917788;29;20245;-86
2022/01/09 09:29:21;;;;;;;0.50;0.50;;;;;;;5.12;100.00;98933.91;4919836;29;20217;-87
2022/01/09 09:31:56;;;;;;;0.40;0.40;;;5.20;99.90;;;5.19;100.00;98934.84;4905683;29;20221;-81
2022/01/09 09:34:26;;;;;;;0.40;0.40;;;;;;;5.26;100.00;98936.66;4922092;29;20211;-81
2022/01/09 09:36:55;;;;;;;0.38;0.38;;;;;;;5.37;100.00;98950.69;4910432;29;20238;-81
2022/01/09 09:39:23;;;;;;;0.38;0.38;;;;;;;5.37;100.00;98933.22;4904907;29;20229;-81
2022/01/09 09:42:00;;;;;;;0.20;0.20;;;5.40;99.90;;;5.44;100.00;98945.50;4914594;29;20226;-83
2022/01/09 09:44:29;;;;;;;0.20;0.20;;;5.50;99.90;;;5.51;100.00;98948.16;4920307;29;20211;-83
2022/01/09 09:46:59;;;;;;;0.30;0.30;;;5.60;99.90;;;5.57;100.00;98956.94;4919329;29;20227;-82
2022/01/09 09:49:32;;;;;;;0.30;0.30;;;;;;;5.60;100.00;98963.94;4928245;29;20214;-80
2022/01/09 09:52:00;;;;;;;0.20;0.20;;;;;;;5.60;100.00;98967.44;4916908;29;20210;-81
2022/01/09 09:54:29;;;;;;;0.30;0.30;;;5.70;99.90;;;5.66;100.00;98959.59;4912177;29;20206;-82
2022/01/09 09:56:57;;;;;;;0.25;0.25;;;5.70;99.90;;;5.65;100.00;98964.84;4916824;29;20257;-82
2022/01/09 09:59:28;;;;;;;0.35;0.35;;;5.70;99.90;;;5.69;100.00;98972.72;4933257;29;20230;-82
2022/01/09 10:01:56;;;;;;;0.38;0.38;;;;;;;5.70;100.00;98944.75;4932257;29;20214;-83
2022/01/09 10:04:24;;;;;;;0.20;0.20;;;;;;;5.67;100.00;98932.50;4921788;29;20207;-82
2022/01/09 10:06:53;;;;;;;0.30;0.30;;;5.70;99.90;;;5.71;100.00;98946.50;4938765;29;20237;-83
2022/01/09 10:09:24;;;;;;;0.30;0.30;;;5.80;99.90;;;5.70;100.00;98947.38;4901034;29;20222;-81
2022/01/09 10:11:56;;;;;;;0.20;0.20;;;5.80;99.90;;;5.73;100.00;98950.88;4932048;29;20293;-81
2022/01/09 10:14:31;;;;;;;0.30;0.30;;;5.80;99.90;;;5.75;100.00;98946.53;4907713;29;20225;-82
2022/01/09 10:17:13;;;;;;;0.32;0.32;;;5.80;99.90;;;5.85;100.00;98963.19;4943063;29;20226;-83
2022/01/09 10:20:24;;;;;;;0.35;0.35;;;5.90;99.90;;;5.88;100.00;98960.56;4902646;29;20202;-83
2022/01/09 10:22:55;;;;;;;0.40;0.40;;;5.90;99.90;;;5.82;100.00;98934.31;4911840;29;20231;-80
2022/01/09 10:25:39;;;;;;;0.20;0.20;;;6.00;99.90;;;5.86;100.00;98954.44;4921874;29;20298;-82
2022/01/09 10:28:12;;;;;;;0.20;0.20;;;5.90;99.90;;;5.90;100.00;98971.97;4922263;29;20241;-81
2022/01/09 10:30:51;;;;;;;0.30;0.30;;;5.90;99.90;;;5.95;100.00;98988.63;4926449;29;20210;-80
2022/01/09 10:33:25;;;;;;;0.30;0.30;;;6.00;99.90;;;5.96;100.00;98966.75;4934419;29;20214;-85
2022/01/09 10:35:53;;;;;;;0.20;0.20;;;;;;;5.89;100.00;98957.13;4927104;29;20210;-82
2022/01/09 10:38:30;;;;;;;0.32;0.32;;;6.10;99.90;;;5.79;100.00;98953.53;4891380;29;20806;-80
2022/01/09 10:41:03;;;;;;;0.30;0.30;;;5.90;99.90;;;5.83;100.00;98951.81;4917509;29;20219;-80
2022/01/09 10:43:41;;;;;;;0.40;0.40;;;6.00;99.90;;;6.02;100.00;98979.91;4916727;29;20243;-80
2022/01/09 10:46:09;;;;;;;0.20;0.20;;;6.10;99.90;;;5.95;100.00;98959.75;4932185;28;20214;-80
2022/01/09 10:48:44;;;;;;;0.13;0.13;;;6.00;99.90;;;5.87;100.00;98968.44;4900085;29;20207;-82
2022/01/09 10:51:14;;;;;;;0.20;0.20;;;6.00;99.90;;;5.83;100.00;98974.53;4915058;29;20564;-80
2022/01/09 10:53:44;;;;;;;0.30;0.30;;;6.00;99.90;;;5.64;100.00;98981.44;4925708;29;20225;-82
2022/01/09 10:56:20;;;;;;;0.38;0.32;;;5.90;99.90;;;5.61;100.00;98998.03;4930578;29;20202;-82
2022/01/09 10:58:58;;;;;;;0.30;0.30;;;5.90;99.90;;;5.49;100.00;98983.97;4919787;29;20203;-81